createdAt,value
2022-11-10T00:01:21.692Z,99590.16
2022-11-10T00:03:50.693Z,99595.97
2022-11-10T00:06:19.382Z,99595.97
2022-11-10T00:08:47.897Z,99592.13
2022-11-10T00:11:16.457Z,99594.88
2022-11-10T00:13:58.825Z,99593.78
2022-11-10T00:16:45.984Z,99606.22
2022-11-10T00:19:14.390Z,99597.38
2022-11-10T00:21:42.769Z,99601.22
2022-11-10T00:24:11.141Z,99598.47
2022-11-10T00:26:39.529Z,99599.84
2022-11-10T00:29:07.946Z,99599.00
2022-11-10T00:31:39.260Z,99610.63
2022-11-10T00:34:08.698Z,99613.09
2022-11-10T00:36:37.198Z,99607.56
2022-11-10T00:39:05.957Z,99604.53
2022-11-10T00:41:34.606Z,99608.97
2022-11-10T00:44:03.240Z,99616.94
2022-11-10T00:46:31.816Z,99617.47
2022-11-10T00:49:01.526Z,99614.47
2022-11-10T00:51:31.499Z,99615.53
2022-11-10T00:53:59.964Z,99621.34
2022-11-10T00:56:28.468Z,99618.03
2022-11-10T00:58:56.977Z,99629.06
2022-11-10T01:01:27.014Z,99625.19
2022-11-10T01:03:56.316Z,99635.91
2022-11-10T01:06:26.080Z,99636.16
2022-11-10T01:08:54.432Z,99649.59
2022-11-10T01:11:25.866Z,99640.47
2022-11-10T01:13:55.857Z,99647.88
2022-11-10T01:16:27.513Z,99648.34
2022-11-10T01:18:58.007Z,99649.41
2022-11-10T01:21:30.130Z,99657.88
2022-11-10T01:23:58.873Z,99655.88
2022-11-10T01:26:27.568Z,99658.84
2022-11-10T01:28:56.037Z,99659.88
2022-11-10T01:31:24.573Z,99652.94
2022-11-10T01:33:52.967Z,99650.16
2022-11-10T01:36:21.328Z,99652.31
2022-11-10T01:38:51.050Z,99647.38
2022-11-10T01:41:19.450Z,99651.75
2022-11-10T01:43:47.883Z,99648.75
2022-11-10T01:46:16.713Z,99650.41
2022-11-10T01:48:50.627Z,99654.28
2022-11-10T01:51:21.846Z,99656.19
2022-11-10T01:53:56.030Z,99660.56
2022-11-10T01:56:25.641Z,99659.38
2022-11-10T01:58:59.877Z,99665.72
2022-11-10T02:01:28.309Z,99666.81
2022-11-10T02:04:00.537Z,99670.66
2022-11-10T02:06:34.966Z,99671.72
2022-11-10T02:09:05.076Z,99674.47
2022-11-10T02:11:34.581Z,99665.16
2022-11-10T02:14:03.350Z,99668.16
2022-11-10T02:16:32.541Z,99669.81
2022-11-10T02:19:17.459Z,99670.91
2022-11-10T02:21:47.441Z,99664.88
2022-11-10T02:24:16.134Z,99671.00
2022-11-10T02:26:49.758Z,99675.38
2022-11-10T02:29:18.470Z,99685.03
2022-11-10T02:31:46.882Z,99676.28
2022-11-10T02:34:15.379Z,99682.91
2022-11-10T02:36:43.761Z,99685.69
2022-11-10T02:39:13.594Z,99687.66
2022-11-10T02:41:41.931Z,99688.50
2022-11-10T02:44:10.500Z,99686.91
2022-11-10T02:46:38.880Z,99694.63
2022-11-10T02:49:08.122Z,99697.94
2022-11-10T02:51:36.483Z,99700.44
2022-11-10T02:54:06.162Z,99697.69
2022-11-10T02:56:36.423Z,99696.28
2022-11-10T02:59:06.182Z,99699.03
2022-11-10T03:01:34.647Z,99699.31
2022-11-10T03:04:03.058Z,99702.63
2022-11-10T03:06:31.479Z,99700.44
2022-11-10T03:09:00.100Z,99705.38
2022-11-10T03:11:32.248Z,99707.91
2022-11-10T03:14:02.828Z,99709.28
2022-11-10T03:16:31.747Z,99715.91
2022-11-10T03:19:00.116Z,99712.66
2022-11-10T03:21:28.466Z,99719.78
2022-11-10T03:23:56.780Z,99706.88
2022-11-10T03:26:25.132Z,99709.63
2022-11-10T03:28:53.467Z,99712.94
2022-11-10T03:31:23.239Z,99719.00
2022-11-10T03:33:51.601Z,99719.31
2022-11-10T03:36:19.953Z,99719.03
2022-11-10T03:38:48.369Z,99717.69
2022-11-10T03:41:19.776Z,99722.66
2022-11-10T03:43:48.812Z,99733.41
2022-11-10T03:46:17.255Z,99721.88
2022-11-10T03:48:52.990Z,99725.19
2022-11-10T03:51:22.639Z,99726.56
2022-11-10T03:53:51.211Z,99733.72
2022-11-10T03:56:19.625Z,99735.41
2022-11-10T03:58:48.078Z,99734.00
2022-11-10T04:01:16.831Z,99729.56
2022-11-10T04:03:51.259Z,99745.28
2022-11-10T04:06:37.734Z,99735.91
2022-11-10T04:09:07.861Z,99740.88
2022-11-10T04:11:53.616Z,99738.38
2022-11-10T04:14:39.287Z,99735.88
2022-11-10T04:17:07.676Z,99739.75
2022-11-10T04:19:37.574Z,99735.63
2022-11-10T04:22:06.003Z,99732.59
2022-11-10T04:24:34.375Z,99737.59
2022-11-10T04:27:02.707Z,99737.31
2022-11-10T04:29:31.043Z,99749.72
2022-11-10T04:31:59.406Z,99755.50
2022-11-10T04:34:27.757Z,99755.00
2022-11-10T04:36:57.458Z,99753.63
2022-11-10T04:39:25.835Z,99752.00
2022-11-10T04:41:57.148Z,99755.06
2022-11-10T04:44:28.139Z,99746.25
2022-11-10T04:46:56.506Z,99758.66
2022-11-10T04:49:25.166Z,99773.81
2022-11-10T04:51:53.538Z,99764.19
2022-11-10T04:54:23.265Z,99773.59
2022-11-10T04:56:51.637Z,99776.94
2022-11-10T04:59:20.152Z,99779.47
2022-11-10T05:01:48.508Z,99782.81
2022-11-10T05:04:16.867Z,99780.09
2022-11-10T05:06:45.451Z,99781.19
2022-11-10T05:09:14.008Z,99779.31
2022-11-10T05:11:43.690Z,99786.75
2022-11-10T05:14:12.482Z,99778.81
2022-11-10T05:16:40.822Z,99788.44
2022-11-10T05:19:09.856Z,99788.75
2022-11-10T05:21:38.192Z,99790.41
2022-11-10T05:24:07.210Z,99790.41
2022-11-10T05:26:35.615Z,99796.72
2022-11-10T05:29:05.335Z,99795.09
2022-11-10T05:31:33.706Z,99803.59
2022-11-10T05:34:02.114Z,99811.31
2022-11-10T05:36:30.488Z,99804.19
2022-11-10T05:38:58.838Z,99814.38
2022-11-10T05:41:27.189Z,99817.97
2022-11-10T05:43:55.551Z,99816.59
2022-11-10T05:46:25.835Z,99820.16
2022-11-10T05:48:54.183Z,99818.25
2022-11-10T05:51:22.518Z,99819.34
2022-11-10T05:53:50.916Z,99828.72
2022-11-10T05:56:19.301Z,99829.78
2022-11-10T05:58:47.644Z,99823.19
2022-11-10T06:01:16.071Z,99823.19
2022-11-10T06:03:45.904Z,99824.88
2022-11-10T06:06:14.310Z,99836.16
2022-11-10T06:08:42.724Z,99832.59
2022-11-10T06:11:11.069Z,99841.75
2022-11-10T06:13:39.389Z,99847.28
2022-11-10T06:16:08.204Z,99855.84
2022-11-10T06:18:36.595Z,99857.00
2022-11-10T06:21:06.749Z,99863.09
2022-11-10T06:23:35.084Z,99863.38
2022-11-10T06:26:03.436Z,99870.31
2022-11-10T06:28:31.818Z,99878.88
2022-11-10T06:31:00.168Z,99887.44
2022-11-10T06:33:28.558Z,99892.19
2022-11-10T06:35:56.888Z,99894.44
2022-11-10T06:38:26.671Z,99907.13
2022-11-10T06:40:55.026Z,99912.94
2022-11-10T06:43:23.633Z,99923.47
2022-11-10T06:45:52.283Z,99915.19
2022-11-10T06:48:20.826Z,99923.75
2022-11-10T06:50:49.246Z,99929.84
2022-11-10T06:53:21.732Z,99926.25
2022-11-10T06:55:54.119Z,99919.88
2022-11-10T06:58:22.485Z,99935.66
2022-11-10T07:00:51.016Z,99944.47
2022-11-10T07:03:19.668Z,99943.94
2022-11-10T07:05:48.262Z,99950.84
2022-11-10T07:08:17.544Z,99952.78
2022-11-10T07:10:52.169Z,99959.69
2022-11-10T07:13:22.505Z,99954.44
2022-11-10T07:15:51.691Z,99959.41
2022-11-10T07:18:20.375Z,99963.56
2022-11-10T07:20:48.963Z,99966.03
2022-11-10T07:23:17.360Z,99969.34
2022-11-10T07:25:45.735Z,99967.13
2022-11-10T07:28:14.169Z,99975.72
2022-11-10T07:30:43.951Z,99963.53
2022-11-10T07:33:15.080Z,99981.84
2022-11-10T07:35:43.562Z,99983.78
2022-11-10T07:38:14.759Z,99978.50
2022-11-10T07:40:43.197Z,99980.44
2022-11-10T07:43:11.568Z,99984.03
2022-11-10T07:45:39.945Z,99994.25
2022-11-10T07:48:10.655Z,100000.88
2022-11-10T07:50:39.062Z,100005.88
2022-11-10T07:53:10.545Z,100004.47
2022-11-10T07:55:40.892Z,100006.13
2022-11-10T07:58:10.322Z,100011.66
2022-11-10T08:00:39.888Z,100013.59
2022-11-10T08:03:12.865Z,100019.66
2022-11-10T08:05:41.432Z,100021.28
2022-11-10T08:08:10.308Z,100032.09
2022-11-10T08:10:39.871Z,100032.34
2022-11-10T08:13:11.613Z,100030.41
2022-11-10T08:15:41.597Z,100032.06
2022-11-10T08:18:19.116Z,100033.97
2022-11-10T08:20:48.703Z,100037.03
2022-11-10T08:23:18.042Z,100036.19
2022-11-10T08:25:48.063Z,100044.19
2022-11-10T08:28:19.596Z,100046.66
2022-11-10T08:30:49.817Z,100041.13
2022-11-10T08:33:21.930Z,100047.50
2022-11-10T08:35:52.802Z,100050.50
2022-11-10T08:38:24.424Z,100044.34
2022-11-10T08:40:53.383Z,100050.97
2022-11-10T08:43:21.958Z,100050.06
2022-11-10T08:45:50.609Z,100053.91
2022-11-10T08:48:21.824Z,100063.84
2022-11-10T08:50:50.790Z,100079.56
2022-11-10T08:53:21.750Z,100080.91
2022-11-10T08:55:51.386Z,100082.00
2022-11-10T08:58:23.412Z,100086.97
2022-11-10T09:00:52.726Z,100089.44
2022-11-10T09:03:25.863Z,100085.00
2022-11-10T09:05:58.245Z,100097.50
2022-11-10T09:08:27.110Z,100099.69
2022-11-10T09:10:56.083Z,100107.97
2022-11-10T09:13:29.434Z,100110.16
2022-11-10T09:16:02.201Z,100110.41
2022-11-10T09:18:32.598Z,100120.06
2022-11-10T09:21:01.093Z,100115.81
2022-11-10T09:23:29.562Z,100125.22
2022-11-10T09:25:58.375Z,100132.59
2022-11-10T09:28:26.843Z,100131.69
2022-11-10T09:30:55.318Z,100138.00
2022-11-10T09:33:24.134Z,100132.34
2022-11-10T09:35:59.906Z,100137.84
2022-11-10T09:38:28.346Z,100139.69
2022-11-10T09:41:03.488Z,100148.25
2022-11-10T09:43:40.781Z,100148.19
2022-11-10T09:46:17.420Z,100150.41
2022-11-10T09:48:51.942Z,100146.75
2022-11-10T09:51:26.997Z,100153.59
2022-11-10T09:53:59.849Z,100158.25
2022-11-10T09:56:34.206Z,100157.41
2022-11-10T09:59:08.446Z,100169.59
2022-11-10T10:01:45.213Z,100159.56
2022-11-10T10:04:31.959Z,100165.13
2022-11-10T10:07:11.386Z,100168.44
2022-11-10T10:09:53.978Z,100174.31
2022-11-10T10:12:46.925Z,100174.88
2022-11-10T10:15:28.576Z,100176.38
2022-11-10T10:18:20.641Z,100178.44
2022-11-10T10:21:11.805Z,100186.59
2022-11-10T10:26:42.557Z,100193.72
2022-11-10T10:29:17.908Z,100189.81
2022-11-10T10:31:51.442Z,100199.53
2022-11-10T10:34:23.178Z,100202.31
2022-11-10T10:36:51.744Z,100200.94
2022-11-10T10:39:30.956Z,100192.69
2022-11-10T10:41:59.759Z,100197.09
2022-11-10T10:44:28.450Z,100197.09
2022-11-10T10:47:00.239Z,100196.88
2022-11-10T10:49:31.369Z,100201.63
2022-11-10T10:52:11.625Z,100202.50
2022-11-10T10:54:41.986Z,100211.41
2022-11-10T10:57:23.683Z,100203.94
2022-11-10T10:59:52.668Z,100211.47
2022-11-10T11:02:28.088Z,100204.28
2022-11-10T11:05:15.345Z,100212.91
2022-11-10T11:07:55.350Z,100210.97
2022-11-10T11:10:30.146Z,100229.28
2022-11-10T11:13:16.112Z,100234.91
2022-11-10T11:15:57.663Z,100231.59
2022-11-10T11:18:28.440Z,100234.38
2022-11-10T11:21:03.782Z,100228.25
2022-11-10T11:24:10.702Z,100236.03
2022-11-10T11:26:53.709Z,100235.75
2022-11-10T11:29:47.719Z,100237.44
2022-11-10T11:32:33.668Z,100244.09
2022-11-10T11:35:17.110Z,100248.25
2022-11-10T11:37:56.407Z,100248.50
2022-11-10T11:40:34.972Z,100244.84
2022-11-10T11:43:20.346Z,100256.75
2022-11-10T11:45:56.484Z,100260.84
2022-11-10T11:48:44.679Z,100258.34
2022-11-10T11:51:22.416Z,100258.84
2022-11-10T11:54:25.143Z,100253.84
2022-11-10T11:56:56.106Z,100257.13
2022-11-10T11:59:45.409Z,100268.47
2022-11-10T12:02:35.521Z,100263.44
2022-11-10T12:05:21.075Z,100259.25
2022-11-10T12:08:03.071Z,100256.50
2022-11-10T12:10:45.606Z,100262.59
2022-11-10T12:13:46.860Z,100265.13
2022-11-10T12:16:23.399Z,100261.19
2022-11-10T12:19:08.697Z,100266.50
2022-11-10T12:21:47.029Z,100248.97
2022-11-10T12:24:54.118Z,100268.13
2022-11-10T12:27:29.710Z,100262.31
2022-11-10T12:30:03.389Z,100267.56
2022-11-10T12:32:42.067Z,100275.91
2022-11-10T12:35:20.671Z,100278.16
2022-11-10T12:37:55.073Z,100274.53
2022-11-10T12:40:27.063Z,100275.06
2022-11-10T12:43:00.579Z,100276.78
2022-11-10T12:45:34.354Z,100275.09
2022-11-10T12:48:06.543Z,100279.56
2022-11-10T12:50:46.283Z,100275.91
2022-11-10T12:53:22.995Z,100283.34
2022-11-10T12:55:57.128Z,100281.06
2022-11-10T12:58:26.845Z,100289.34
2022-11-10T13:01:02.086Z,100289.38
2022-11-10T13:03:35.277Z,100283.88
2022-11-10T13:06:06.101Z,100278.88
2022-11-10T13:08:39.200Z,100286.97
2022-11-10T13:11:27.530Z,100299.78
2022-11-10T13:14:00.230Z,100300.66
2022-11-10T13:16:54.667Z,100297.63
2022-11-10T13:20:20.838Z,100302.13
2022-11-10T13:22:51.257Z,100304.69
2022-11-10T13:25:56.620Z,100308.03
2022-11-10T13:29:20.008Z,100315.59
2022-11-10T13:31:58.697Z,100314.75
2022-11-10T13:34:35.553Z,100323.94
2022-11-10T13:37:42.555Z,100322.25
2022-11-10T13:40:35.949Z,100325.28
2022-11-10T13:43:27.811Z,100330.03
2022-11-10T13:46:06.659Z,100332.25
2022-11-10T13:49:22.967Z,100330.34
2022-11-10T13:52:06.414Z,100337.31
2022-11-10T13:55:15.982Z,100336.47
2022-11-10T13:58:02.064Z,100343.13
2022-11-10T14:00:33.826Z,100348.69
2022-11-10T14:03:03.691Z,100350.38
2022-11-10T14:06:10.867Z,100351.53
2022-11-10T14:08:51.914Z,100357.66
2022-11-10T14:11:29.302Z,100361.56
2022-11-10T14:14:04.107Z,100366.59
2022-11-10T14:16:39.228Z,100364.41
2022-11-10T14:19:25.840Z,100372.19
2022-11-10T14:21:58.660Z,100371.63
2022-11-10T14:24:31.759Z,100364.72
2022-11-10T14:27:07.339Z,100367.22
2022-11-10T14:29:40.025Z,100370.28
2022-11-10T14:32:20.568Z,100364.44
2022-11-10T14:34:56.692Z,100370.56
2022-11-10T14:37:28.128Z,100379.19
2022-11-10T14:39:59.187Z,100375.84
2022-11-10T14:42:35.366Z,100380.84
2022-11-10T14:45:19.163Z,100388.88
2022-11-10T14:47:58.068Z,100389.13
2022-11-10T14:50:29.165Z,100383.84
2022-11-10T14:53:03.055Z,100384.91
2022-11-10T14:55:36.326Z,100400.44
2022-11-10T14:58:12.688Z,100399.56
2022-11-10T15:00:43.413Z,100397.63
2022-11-10T15:03:19.323Z,100404.00
2022-11-10T15:05:48.235Z,100407.56
2022-11-10T15:08:17.209Z,100409.22
2022-11-10T15:10:48.795Z,100407.28
2022-11-10T15:13:36.253Z,100411.94
2022-11-10T15:16:28.416Z,100416.91
2022-11-10T15:18:58.485Z,100421.88
2022-11-10T15:21:34.211Z,100419.09
2022-11-10T15:24:06.943Z,100421.31
2022-11-10T15:26:40.318Z,100419.91
2022-11-10T15:29:21.367Z,100419.63
2022-11-10T15:31:51.133Z,100424.31
2022-11-10T15:34:41.793Z,100419.88
2022-11-10T15:37:30.009Z,100430.63
2022-11-10T15:40:37.126Z,100436.94
2022-11-10T15:43:15.320Z,100443.84
2022-11-10T15:45:47.748Z,100454.06
2022-11-10T15:48:19.400Z,100468.41
2022-11-10T15:50:51.650Z,100461.47
2022-11-10T15:53:31.327Z,100460.59
2022-11-10T15:55:59.715Z,100472.19
2022-11-10T15:58:29.619Z,100480.16
2022-11-10T16:00:59.463Z,100477.94
2022-11-10T16:03:28.400Z,100472.41
2022-11-10T16:05:56.778Z,100472.66
2022-11-10T16:08:26.242Z,100460.78
2022-11-10T16:10:57.684Z,100470.16
2022-11-10T16:13:30.558Z,100477.63
2022-11-10T16:16:01.610Z,100481.22
2022-11-10T16:18:31.779Z,100492.28
2022-11-10T16:21:00.194Z,100503.66
2022-11-10T16:23:28.679Z,100492.91
2022-11-10T16:25:58.373Z,100491.53
2022-11-10T16:28:28.865Z,100497.63
2022-11-10T16:30:57.628Z,100495.72
2022-11-10T16:33:29.224Z,100499.56
2022-11-10T16:35:57.968Z,100510.34
2022-11-10T16:38:29.462Z,100518.31
2022-11-10T16:40:59.995Z,100521.63
2022-11-10T16:43:29.509Z,100531.28
2022-11-10T16:46:01.247Z,100527.94
2022-11-10T16:48:35.412Z,100530.72
2022-11-10T16:51:04.113Z,100538.19
2022-11-10T16:53:33.711Z,100560.88
2022-11-10T16:56:02.494Z,100566.13
2022-11-10T16:58:31.612Z,100567.81
2022-11-10T17:01:02.815Z,100573.34
2022-11-10T17:03:36.031Z,100579.72
2022-11-10T17:06:05.624Z,100581.34
2022-11-10T17:08:36.711Z,100580.53
2022-11-10T17:11:07.029Z,100595.47
2022-11-10T17:13:35.685Z,100594.88
2022-11-10T17:16:08.464Z,100589.88
2022-11-10T17:18:39.146Z,100595.69
2022-11-10T17:21:08.748Z,100604.47
2022-11-10T17:23:37.544Z,100603.91
2022-11-10T17:26:06.575Z,100609.97
2022-11-10T17:28:35.564Z,100614.91
2022-11-10T17:31:05.503Z,100610.75
2022-11-10T17:33:34.392Z,100617.38
2022-11-10T17:36:06.192Z,100612.38
2022-11-10T17:38:35.835Z,100610.94
2022-11-10T17:41:04.901Z,100621.69
2022-11-10T17:43:33.645Z,100625.81
2022-11-10T17:46:02.198Z,100626.34
2022-11-10T17:48:31.298Z,100630.44
2022-11-10T17:51:00.245Z,100628.75
2022-11-10T17:53:31.290Z,100634.28
2022-11-10T17:56:00.236Z,100643.69
2022-11-10T17:58:30.857Z,100639.25
2022-11-10T18:01:01.049Z,100635.66
2022-11-10T18:03:30.882Z,100634.56
2022-11-10T18:06:01.229Z,100642.84
2022-11-10T18:08:33.473Z,100641.19
2022-11-10T18:11:03.396Z,100649.22
2022-11-10T18:13:32.323Z,100652.25
2022-11-10T18:16:01.668Z,100656.09
2022-11-10T18:18:31.086Z,100662.19
2022-11-10T18:20:59.918Z,100666.88
2022-11-10T18:23:32.099Z,100662.47
2022-11-10T18:26:06.436Z,100671.84
2022-11-10T18:28:38.406Z,100671.00
2022-11-10T18:31:11.151Z,100671.25
2022-11-10T18:33:42.253Z,100664.91
2022-11-10T18:36:14.886Z,100664.06
2022-11-10T18:38:46.531Z,100665.16
2022-11-10T18:41:34.661Z,100667.09
2022-11-10T18:44:03.813Z,100672.03
2022-11-10T18:46:35.411Z,100674.22
2022-11-10T18:49:06.682Z,100695.50
2022-11-10T18:51:36.566Z,100697.69
2022-11-10T18:54:08.081Z,100693.50
2022-11-10T18:56:37.762Z,100688.47
2022-11-10T18:59:07.564Z,100691.78
2022-11-10T19:01:39.274Z,100697.78
2022-11-10T19:04:08.755Z,100697.22
2022-11-10T19:06:38.710Z,100695.78
2022-11-10T19:09:09.975Z,100697.41
2022-11-10T19:11:39.817Z,100701.50
2022-11-10T19:14:09.045Z,100709.44
2022-11-10T19:16:40.288Z,100709.97
2022-11-10T19:19:13.099Z,100709.41
2022-11-10T19:21:43.328Z,100701.34
2022-11-10T19:24:25.820Z,100710.16
2022-11-10T19:26:57.755Z,100712.53
2022-11-10T19:29:28.344Z,100710.06
2022-11-10T19:31:57.531Z,100716.66
2022-11-10T19:34:27.117Z,100716.06
2022-11-10T19:36:59.393Z,100721.00
2022-11-10T19:39:33.149Z,100725.97
2022-11-10T19:42:11.263Z,100730.91
2022-11-10T19:44:41.139Z,100723.94
2022-11-10T19:47:11.744Z,100729.69
2022-11-10T19:49:41.508Z,100735.47
2022-11-10T19:52:12.035Z,100739.31
2022-11-10T19:54:44.826Z,100738.75
2022-11-10T19:57:14.491Z,100737.09
2022-11-10T19:59:45.224Z,100750.88
2022-11-10T20:02:16.375Z,100755.56
2022-11-10T20:05:04.709Z,100744.53
2022-11-10T20:07:51.374Z,100748.34
2022-11-10T20:10:22.312Z,100744.22
2022-11-10T20:12:52.139Z,100746.97
2022-11-10T20:15:21.934Z,100744.22
2022-11-10T20:17:51.900Z,100736.72
2022-11-10T20:20:22.697Z,100746.13
2022-11-10T20:22:55.737Z,100747.19
2022-11-10T20:25:26.754Z,100760.69
2022-11-10T20:27:56.232Z,100761.75
2022-11-10T20:30:26.540Z,100765.84
2022-11-10T20:32:56.191Z,100774.66
2022-11-10T20:35:25.825Z,100768.50
2022-11-10T20:37:56.304Z,100779.22
2022-11-10T20:40:44.061Z,100781.41
2022-11-10T20:43:15.332Z,100779.13
2022-11-10T20:45:44.877Z,100781.56
2022-11-10T20:48:15.933Z,100784.53
2022-11-10T20:50:45.525Z,100782.03
2022-11-10T20:53:15.060Z,100779.28
2022-11-10T20:55:54.128Z,100775.94
2022-11-10T20:58:22.943Z,100777.59
2022-11-10T21:00:52.884Z,100791.41
2022-11-10T21:03:22.284Z,100785.28
2022-11-10T21:05:55.894Z,100788.31
2022-11-10T21:08:24.725Z,100795.75
2022-11-10T21:10:57.354Z,100800.66
2022-11-10T21:13:26.757Z,100791.81
2022-11-10T21:15:57.734Z,100793.97
2022-11-10T21:18:29.790Z,100801.41
2022-11-10T21:21:01.041Z,100807.19
2022-11-10T21:23:30.164Z,100805.75
2022-11-10T21:26:02.544Z,100807.94
2022-11-10T21:28:31.094Z,100802.06
2022-11-10T21:31:04.767Z,100801.47
2022-11-10T21:33:33.301Z,100808.88
2022-11-10T21:36:07.295Z,100816.84
2022-11-10T21:38:36.004Z,100817.69
2022-11-10T21:41:06.135Z,100815.16
2022-11-10T21:43:34.735Z,100825.34
2022-11-10T21:46:04.048Z,100817.31
2022-11-10T21:48:32.437Z,100806.28
2022-11-10T21:51:01.867Z,100804.38
2022-11-10T21:53:30.886Z,100816.25
2022-11-10T21:56:00.169Z,100806.28
2022-11-10T21:58:30.221Z,100817.06
2022-11-10T22:01:03.118Z,100816.47
2022-11-10T22:03:32.266Z,100821.19
2022-11-10T22:06:04.874Z,100823.94
2022-11-10T22:08:33.914Z,100833.28
2022-11-10T22:11:20.113Z,100830.78
2022-11-10T22:14:07.589Z,100825.72
2022-11-10T22:17:00.525Z,100828.75
2022-11-10T22:19:29.038Z,100840.25
2022-11-10T22:22:03.300Z,100834.16
2022-11-10T22:24:33.761Z,100831.41
2022-11-10T22:27:04.976Z,100832.47
2022-11-10T22:29:35.203Z,100833.56
2022-11-10T22:32:04.865Z,100844.81
2022-11-10T22:34:33.395Z,100848.66
2022-11-10T22:37:01.888Z,100853.34
2022-11-10T22:39:44.502Z,100844.81
2022-11-10T22:42:31.450Z,100844.00
2022-11-10T22:45:01.440Z,100832.34
2022-11-10T22:47:50.214Z,100841.47
2022-11-10T22:50:18.655Z,100832.34
2022-11-10T22:52:47.264Z,100837.06
2022-11-10T22:55:16.056Z,100841.72
2022-11-10T22:57:44.481Z,100839.81
2022-11-10T23:00:17.202Z,100843.38
2022-11-10T23:02:45.616Z,100845.91
2022-11-10T23:05:14.242Z,100844.00
2022-11-10T23:07:42.733Z,100844.81
2022-11-10T23:10:11.506Z,100847.81
2022-11-10T23:12:40.857Z,100850.31
2022-11-10T23:15:10.724Z,100845.91
2022-11-10T23:17:40.617Z,100843.75
2022-11-10T23:20:11.004Z,100849.00
2022-11-10T23:22:39.451Z,100841.56
2022-11-10T23:25:09.259Z,100840.50
2022-11-10T23:27:37.801Z,100843.28
2022-11-10T23:30:08.079Z,100841.31
2022-11-10T23:32:36.579Z,100844.94
2022-11-10T23:35:07.700Z,100845.78
2022-11-10T23:37:36.175Z,100837.75
2022-11-10T23:40:05.832Z,100837.75
2022-11-10T23:42:34.307Z,100828.06
2022-11-10T23:45:02.748Z,100827.47
2022-11-10T23:47:31.271Z,100823.84
2022-11-10T23:49:59.756Z,100812.25
2022-11-10T23:52:29.599Z,100813.91
2022-11-10T23:54:58.061Z,100814.75
2022-11-10T23:57:26.503Z,100813.03
2022-11-10T23:59:54.962Z,100818.81
